Punta Gorda, FL

1:48 PM EDT on October 02, 2014 (GMT -0400)
Charlotte County | Change Station
CLOSE
Current Station
Airport
Location: Punta Gorda,
Elevation: 26 ft
Nearby Weather Stations

Elev 26 ft 26.92 °N, 81.99 °W | Updated 55 minutes ago

Partly Cloudy
Partly Cloudy
88 °F
Feels Like 98 °F
N
5
Wind Variable Wind from North

Today
High -- | Low -- °F
--% Chance of Precip.
Yesterday
High -- | Low -- °F
Precip. -- in
7:21 AM 7:13 PM
First Quarter, 60% visible
Pressure 30.05 in
Visibility 10.0 miles
Clouds Few 3900 ft
Heat Index 98 °F
Dew Point 75 °F
Humidity 65%
Rainfall 0.02 in
Snow Depth Not available.
UV 11 out of 12
Pollen 5.90 out of 12
Air Quality Not available.
Flu Activity Not available.
METAR KPGD 021653Z 35004KT 10SM FEW039 31/24 A3005 RMK AO2 SLP174 T03110239

More Conditions Fewer Conditions

Pressure 30.05 in
Visibility 10.0 miles
Clouds Few 3900 ft
Heat Index 98 °F
Dew Point 75 °F
Humidity 65%
Rainfall 0.02 in
Snow Depth Not available.
UV 11 out of 12
Pollen 5.90 out of 12
Air Quality Not available.
Flu Activity Not available.
METAR KPGD 021653Z 35004KT 10SM FEW039 31/24 A3005 RMK AO2 SLP174 T03110239

More Conditions Fewer Conditions

10-Day Weather Forecast

Almanac

Astronomy

Oct. 02, 2014 Rise Set
Actual Time 7:21 AM EDT 7:13 PM EDT
Civil Twilight 6:57 AM EDT 7:36 PM EDT
Nautical Twilight 6:30 AM EDT 8:03 PM EDT
Astronomical Twilight 6:03 AM EDT 8:30 PM EDT
Moon 2:50 PM EDT 1:06 AM EDT
Length of Visible Light 12h 38m
Length of Day
11h 52m
Tomorrow will be 1m 34s shorter.
First Quarter, 60% of the Moon is Illuminated
Today
First Quarter
Oct 8
Full
Oct 15
Last Quarter
Oct 23
New
Oct 30
First Quarter

Today's Extremes

State Highs State Lows

Community

WunderPhotos

Upload Photos

1,758,312 photos uploaded!

Nearby

Snow Depth

Station Depth Elevation
No new snow has been reported.

Earthquake Activity

City Distance Mag. Time & Date
No recent earthquake activity has been reported nearby.
Minimum magnitude displayed is 2.5.

Coastal Water Temperatures

Place Temperature
No Stations Reporting

Nearby Weather Stations